地図

経路データ

SID SEASON NUMBER BASIN SUBBASIN NAME ISO_TIME NATURE LAT LON WMO_WIND WMO_PRES WMO_AGENCY TRACK_TYPE DIST2LAND LANDFALL IFLAG USA_AGENCY USA_ATCF_ID USA_LAT USA_LON USA_RECORD USA_STATUS USA_WIND USA_PRES USA_SSHS USA_R34_NE USA_R34_SE USA_R34_SW USA_R34_NW USA_R50_NE USA_R50_SE USA_R50_SW USA_R50_NW USA_R64_NE USA_R64_SE USA_R64_SW USA_R64_NW USA_POCI USA_ROCI USA_RMW USA_EYE TOKYO_LAT TOKYO_LON TOKYO_GRADE TOKYO_WIND TOKYO_PRES TOKYO_R50_DIR TOKYO_R50_LONG TOKYO_R50_SHORT TOKYO_R30_DIR TOKYO_R30_LONG TOKYO_R30_SHORT TOKYO_LAND CMA_LAT CMA_LON CMA_CAT CMA_WIND CMA_PRES HKO_LAT HKO_LON HKO_CAT HKO_WIND HKO_PRES NEWDELHI_LAT NEWDELHI_LON NEWDELHI_GRADE NEWDELHI_WIND NEWDELHI_PRES NEWDELHI_CI NEWDELHI_DP NEWDELHI_POCI REUNION_LAT REUNION_LON REUNION_TYPE REUNION_WIND REUNION_PRES REUNION_TNUM REUNION_CI REUNION_RMW REUNION_R34_NE REUNION_R34_SE REUNION_R34_SW REUNION_R34_NW REUNION_R50_NE REUNION_R50_SE REUNION_R50_SW REUNION_R50_NW REUNION_R64_NE REUNION_R64_SE REUNION_R64_SW REUNION_R64_NW BOM_LAT BOM_LON BOM_TYPE BOM_WIND BOM_PRES BOM_TNUM BOM_CI BOM_RMW BOM_R34_NE BOM_R34_SE BOM_R34_SW BOM_R34_NW BOM_R50_NE BOM_R50_SE BOM_R50_SW BOM_R50_NW BOM_R64_NE BOM_R64_SE BOM_R64_SW BOM_R64_NW BOM_ROCI BOM_POCI BOM_EYE BOM_POS_METHOD BOM_PRES_METHOD NADI_LAT NADI_LON NADI_CAT NADI_WIND NADI_PRES WELLINGTON_LAT WELLINGTON_LON WELLINGTON_WIND WELLINGTON_PRES DS824_LAT DS824_LON DS824_STAGE DS824_WIND DS824_PRES TD9636_LAT TD9636_LON TD9636_STAGE TD9636_WIND TD9636_PRES TD9635_LAT TD9635_LON TD9635_WIND TD9635_PRES TD9635_ROCI NEUMANN_LAT NEUMANN_LON NEUMANN_CLASS NEUMANN_WIND NEUMANN_PRES MLC_LAT MLC_LON MLC_CLASS MLC_WIND MLC_PRES USA_GUST BOM_GUST BOM_GUST_PER REUNION_GUST REUNION_GUST_PER USA_SEAHGT USA_SEARAD_NE USA_SEARAD_SE USA_SEARAD_SW USA_SEARAD_NW STORM_SPEED STORM_DIR
1970291N14085 1970 135 NI BB NOT_NAMED 1970-10-17 18:00:00 TS 13.9000 85.0000 main 418 410 O________O____ jtwc_io IO121970 13.9000 85.0000 -1 13.9000 85.0000 TC 3 0
1970291N14085 1970 135 NI BB NOT_NAMED 1970-10-17 21:00:00 TS 14.0375 85.0025 main 410 394 P________P____ IO121970 14.0375 85.0025 -1 14.0375 85.0025 TC 3 0
1970291N14085 1970 135 NI BB NOT_NAMED 1970-10-18 00:00:00 TS 14.2000 85.0000 main 394 379 O________O____ jtwc_io IO121970 14.2000 85.0000 -1 14.2000 85.0000 TC 25 4 359
1970291N14085 1970 135 NI BB NOT_NAMED 1970-10-18 03:00:00 TS 14.4000 84.9933 main 379 365 P________PO___ IO121970 14.4000 84.9925 -1 14.4000 84.9925 TC 25 14.4000 85.0000 1 4 1
1970291N14085 1970 135 NI BB NOT_NAMED 1970-10-18 06:00:00 TS 14.5975 85.0078 main 365 358 O________OP___ jtwc_io IO121970 14.6000 85.0000 -1 14.6000 85.0000 TC 25 14.5875 85.0390 1 4 10
1970291N14085 1970 135 NI BB NOT_NAMED 1970-10-18 09:00:00 TS 14.7554 85.0480 main 352 352 P________PP___ IO121970 14.7500 85.0350 -1 14.7500 85.0350 TC 25 14.7700 85.0825 1 3 17
1970291N14085 1970 135 NI BB NOT_NAMED 1970-10-18 12:00:00 TS 14.9142 85.1116 main 355 349 O________OP___ jtwc_io IO121970 14.9000 85.1000 -1 14.9000 85.1000 TC 25 14.9425 85.1347 1 4 22
1970291N14085 1970 135 NI BB NOT_NAMED 1970-10-18 15:00:00 TS 15.1050 85.1950 main 351 341 P________PO___ IO121970 15.1075 85.1925 -1 15.1075 85.1925 TC 25 15.1000 85.2000 1 4 26
1970291N14085 1970 135 NI BB NOT_NAMED 1970-10-18 18:00:00 TS 15.2793 85.2933 main 341 340 O________OP___ jtwc_io IO121970 15.3000 85.3000 -1 15.3000 85.3000 TC 25 15.2378 85.2800 1 4 33
1970291N14085 1970 135 NI BB NOT_NAMED 1970-10-18 21:00:00 TS 15.4042 85.3983 main 340 332 P________PP___ IO121970 15.4300 85.4150 -1 15.4300 85.4150 TC 30 15.3525 85.3650 1 3 42
1970291N14085 1970 135 NI BB NOT_NAMED 1970-10-19 00:00:00 TS 15.4803 85.4808 main 339 339 O________OP___ jtwc_io IO121970 15.5000 85.5000 -1 15.5000 85.5000 TC 35 15.4410 85.4425 1 2 44
1970291N14085 1970 135 NI BB NOT_NAMED 1970-10-19 03:00:00 TS 15.5100 85.5100 main 339 339 P________PO___ IO121970 15.5150 85.5150 -1 15.5150 85.5150 TC 35 15.5000 85.5000 2 0 42
1970291N14085 1970 135 NI BB NOT_NAMED 1970-10-19 06:00:00 TS 15.5096 85.5072 main 339 339 O________OP___ jtwc_io IO121970 15.5000 85.5000 -1 15.5000 85.5000 TC 35 15.5287 85.5216 2 0 0
1970291N14085 1970 135 NI BB NOT_NAMED 1970-10-19 09:00:00 TS 15.5100 85.5075 main 339 339 P________PP___ IO121970 15.5000 85.5000 -1 15.5000 85.5000 TC 35 15.5300 85.5225 2 0 0
1970291N14085 1970 135 NI BB NOT_NAMED 1970-10-19 12:00:00 TS 15.5054 85.5041 main 339 339 O________OP___ jtwc_io IO121970 15.5000 85.5000 -1 15.5000 85.5000 TC 35 15.5162 85.5122 2 0 0
1970291N14085 1970 135 NI BB NOT_NAMED 1970-10-19 15:00:00 TS 15.5000 85.5000 main 339 339 P________PO___ IO121970 15.5000 85.5000 -1 15.5000 85.5000 TC 35 15.5000 85.5000 3 0 0
1970291N14085 1970 135 NI BB NOT_NAMED 1970-10-19 18:00:00 TS 15.4973 85.4946 main 339 339 O________OP___ jtwc_io IO121970 15.5000 85.5000 -1 15.5000 85.5000 TC 35 15.4919 85.4838 3 0 0
1970291N14085 1970 135 NI BB NOT_NAMED 1970-10-19 21:00:00 TS 15.4950 85.4900 main 339 339 P________PP___ IO121970 15.5000 85.5000 -1 15.5000 85.5000 TC 35 15.4850 85.4700 3 0 0
1970291N14085 1970 135 NI BB NOT_NAMED 1970-10-20 00:00:00 TS 15.4952 85.4904 main 339 339 O________OP___ jtwc_io IO121970 15.5000 85.5000 -1 15.5000 85.5000 TC 35 15.4856 85.4713 3 0 0
1970291N14085 1970 135 NI BB NOT_NAMED 1970-10-20 03:00:00 TS 15.4950 85.4850 main 339 339 P________PO___ IO121970 15.4925 85.4775 -1 15.4925 85.4775 TC 35 15.5000 85.5000 3 0 69
1970291N14085 1970 135 NI BB NOT_NAMED 1970-10-20 06:00:00 TS 15.5092 85.5224 main 339 339 O________OP___ jtwc_io IO121970 15.5000 85.5000 -1 15.5000 85.5000 TC 35 15.5275 85.5672 3 2 72
1970291N14085 1970 135 NI BB NOT_NAMED 1970-10-20 09:00:00 TS 15.5467 85.6442 main 347 346 P________PP___ IO121970 15.5350 85.6350 -1 15.5350 85.6350 TC 35 15.5700 85.6625 3 3 69
1970291N14085 1970 135 NI BB NOT_NAMED 1970-10-20 12:00:00 TS 15.6092 85.7922 main 352 348 O________OP___ jtwc_io IO121970 15.6000 85.8000 -1 15.6000 85.8000 TC 35 15.6275 85.7766 3 3 59
1970291N14085 1970 135 NI BB NOT_NAMED 1970-10-20 15:00:00 TS 15.6950 85.9000 main 348 345 P________PO___ IO121970 15.6925 85.9000 -1 15.6925 85.9000 TC 35 15.7000 85.9000 3 3 47
1970291N14085 1970 135 NI BB NOT_NAMED 1970-10-20 18:00:00 TS 15.7911 85.9992 main 345 342 O________OP___ jtwc_io IO121970 15.8000 86.0000 -1 15.8000 86.0000 TC 35 15.7733 85.9977 3 3 49
1970291N14085 1970 135 NI BB NOT_NAMED 1970-10-20 21:00:00 TS 15.8824 86.1301 main 342 340 P________PP___ IO121970 15.8925 86.1425 -1 15.8925 86.1425 TC 50 15.8623 86.1053 3 3 53
1970291N14085 1970 135 NI BB NOT_NAMED 1970-10-21 00:00:00 TS 15.9901 86.2784 main 347 339 O________OP___ jtwc_io IO121970 16.0000 86.3000 -1 16.0000 86.3000 TC 65 15.9702 86.2352 3 4 49
1970291N14085 1970 135 NI BB NOT_NAMED 1970-10-21 03:00:00 TS 16.1283 86.4184 main 346 338 P________PO___ IO121970 16.1424 86.4276 -1 16.1424 86.4276 TC 65 16.1000 86.4000 4 4 47
1970291N14085 1970 135 NI BB NOT_NAMED 1970-10-21 06:00:00 TS 16.2845 86.6087 main 346 346 O________OP___ jtwc_io IO121970 16.3000 86.6000 -1 16.3000 86.6000 TC 65 16.2536 86.6261 4 5 56
1970291N14085 1970 135 NI BB NOT_NAMED 1970-10-21 09:00:00 TS 16.4376 86.8899 main 361 354 P________PP___ IO121970 16.4426 86.8925 -1 16.4426 86.8925 TC 65 16.4278 86.8848 4 6 60
1970291N14085 1970 135 NI BB NOT_NAMED 1970-10-21 12:00:00 TS 16.6043 87.1837 main 369 369 O________OP___ jtwc_io IO121970 16.6000 87.2000 -1 16.6000 87.2000 TC 65 16.6130 87.1511 4 6 54
1970291N14085 1970 135 NI BB NOT_NAMED 1970-10-21 15:00:00 TS 16.8000 87.4150 main 371 358 P________PO___ IO121970 16.7999 87.4225 -1 16.7999 87.4225 TC 65 16.8000 87.4000 4 5 47
1970291N14085 1970 135 NI BB NOT_NAMED 1970-10-21 18:00:00 TS 16.9740 87.5990 main 358 352 O________OP___ jtwc_io IO121970 17.0000 87.6000 -1 17.0000 87.6000 TC 65 16.9221 87.5971 4 5 46
1970291N14085 1970 135 NI BB NOT_NAMED 1970-10-21 21:00:00 TS 17.1124 87.7579 main 356 340 P________PP___ IO121970 17.1425 87.7501 -1 17.1425 87.7501 TC 65 17.0523 87.7733 4 4 45
1970291N14085 1970 135 NI BB NOT_NAMED 1970-10-22 00:00:00 TS 17.2772 87.9126 main 340 332 O________OP___ jtwc_io IO121970 17.3000 87.9000 -1 17.3000 87.9000 TC 65 17.2315 87.9378 4 5 41
1970291N14085 1970 135 NI BB NOT_NAMED 1970-10-22 03:00:00 TS 17.4934 88.1001 main 332 317 P________PO___ IO121970 17.4900 88.1001 -1 17.4900 88.1001 TC 65 17.5000 88.1000 4 7 33
1970291N14085 1970 135 NI BB NOT_NAMED 1970-10-22 06:00:00 TS 17.8369 88.2982 main 317 283 O________OP___ jtwc_io IO121970 17.8000 88.3000 -1 17.8000 88.3000 TC 65 17.9107 88.2947 4 9 22
1970291N14085 1970 135 NI BB NOT_NAMED 1970-10-22 09:00:00 TS 18.3400 88.4672 main 291 253 P________PP___ IO121970 18.3050 88.4575 -1 18.3050 88.4575 TC 65 18.4102 88.4866 4 11 16
1970291N14085 1970 135 NI BB NOT_NAMED 1970-10-22 12:00:00 TS 18.9182 88.6201 main 253 229 O________OP___ jtwc_io IO121970 18.9000 88.6000 -1 18.9000 88.6000 TC 65 18.9545 88.6603 4 12 15
1970291N14085 1970 135 NI BB NOT_NAMED 1970-10-22 15:00:00 TS 19.4767 88.7816 main 230 178 P________PO___ IO121970 19.4650 88.7724 -1 19.4650 88.7724 TC 65 19.5000 88.8000 4 11 13
1970291N14085 1970 135 NI BB NOT_NAMED 1970-10-22 18:00:00 TS 19.9872 88.8810 main 178 134 O________OP___ jtwc_io IO121970 20.0000 88.9000 -1 20.0000 88.9000 TC 65 19.9616 88.8431 4 10 6
1970291N14085 1970 135 NI BB NOT_NAMED 1970-10-22 21:00:00 TS 20.4398 88.8813 main 134 78 P________PP___ IO121970 20.4499 88.8930 -1 20.4499 88.8930 TC 65 20.4195 88.8578 4 9 0
1970291N14085 1970 135 NI BB NOT_NAMED 1970-10-23 00:00:00 TS 20.8976 88.8978 main 78 22 O________OP___ jtwc_io IO121970 20.9000 88.9000 -1 20.9000 88.9000 TC 65 20.8927 88.8935 4 10 8
1970291N14085 1970 135 NI BB NOT_NAMED 1970-10-23 03:00:00 TS 21.4183 89.0318 main 22 0 P________PO___ IO121970 21.4274 89.0476 -1 21.4274 89.0476 TC 50 21.4000 89.0000 4 12 18
1970291N14085 1970 135 NI BB NOT_NAMED 1970-10-23 06:00:00 TS 22.0126 89.2879 main 0 0 O________OP___ jtwc_io IO121970 22.0000 89.3000 -1 22.0000 89.3000 TC 35 22.0377 89.2637 4 13 24
1970291N14085 1970 135 NI BB NOT_NAMED 1970-10-23 09:00:00 TS 22.6379 89.6285 main 0 0 P________PP___ IO121970 22.6076 89.6422 -1 22.6076 89.6422 TC 30 22.6983 89.6013 4 14 28
1970291N14085 1970 135 NI BB NOT_NAMED 1970-10-23 12:00:00 TS 23.2366 89.9879 main 0 0 O________OP___ jtwc_io IO121970 23.2000 90.0000 -1 23.2000 90.0000 TC 25 23.3097 89.9637 4 13 28
1970291N14085 1970 135 NI BB NOT_NAMED 1970-10-23 15:00:00 TS 23.7833 90.2817 main 0 0 P________PO___ IO121970 23.7749 90.2726 -1 23.7749 90.2726 TC 25 23.8000 90.3000 1 11 28
1970291N14085 1970 135 NI BB NOT_NAMED 1970-10-23 18:00:00 TS 24.1672 90.5279 main 0 0 O________OP___ jtwc_io IO121970 24.2000 90.5000 -1 24.2000 90.5000 TC 25 24.1179 90.5698 1 7 37
1970291N14085 1970 135 NI BB NOT_NAMED 1970-10-23 21:00:00 TS 24.3394 90.7372 main 0 0 P________PP___ IO121970 24.3751 90.7051 -1 24.3751 90.7051 TC 25 24.2919 90.7801 1 4 59
1970291N14085 1970 135 NI BB NOT_NAMED 1970-10-24 00:00:00 TS 24.3850 90.9251 main 0 0 O________OP___ jtwc_io IO121970 24.4000 90.9000 -1 24.4000 90.9000 TC 25 24.3699 90.9501 1 3 80
1970291N14085 1970 135 NI BB NOT_NAMED 1970-10-24 03:00:00 NR 24.4000 91.1000 main 0 __________O___ IO121970 -1 TC 24.4000 91.1000 1 3 85

IBTrACS Databaseについて

本データベースは、米国NOAAが公開する1842年以降の世界の熱帯低気圧のベストトラックデータアーカイブInternational Best Track Archive for Climate Stewardship (IBTrACS)を、ウェブで閲覧しやすい形式に変換したものです。

最終更新日:2021-12-08